createdAt,value
2023-03-16T00:02:11.386Z,8.27
2023-03-16T00:05:34.295Z,9.77
2023-03-16T00:08:58.975Z,14.93
2023-03-16T00:12:22.585Z,12.10
2023-03-16T00:16:02.495Z,11.33
2023-03-16T00:19:25.358Z,14.83
2023-03-16T00:22:53.557Z,12.77
2023-03-16T00:26:15.327Z,7.87
2023-03-16T00:29:37.118Z,9.33
2023-03-16T00:33:00.025Z,8.93
2023-03-16T00:36:22.626Z,7.47
2023-03-16T00:39:47.312Z,9.37
2023-03-16T00:43:09.097Z,7.87
2023-03-16T00:46:36.974Z,8.50
2023-03-16T00:50:01.652Z,8.10
2023-03-16T00:53:23.467Z,8.40
2023-03-16T00:56:45.676Z,14.33
2023-03-16T01:00:14.826Z,10.77
2023-03-16T01:03:37.888Z,12.90
2023-03-16T01:07:00.247Z,12.30
2023-03-16T01:10:22.040Z,9.83
2023-03-16T01:13:54.212Z,9.40
2023-03-16T01:17:18.195Z,8.40
2023-03-16T01:20:40.310Z,9.07
2023-03-16T01:24:07.258Z,7.57
2023-03-16T01:27:31.106Z,10.50
2023-03-16T01:31:01.925Z,11.13
2023-03-16T01:34:24.402Z,10.50
2023-03-16T01:37:47.368Z,11.73
2023-03-16T01:41:13.601Z,11.37
2023-03-16T01:44:56.671Z,17.40
2023-03-16T01:48:37.079Z,18.83
2023-03-16T01:52:21.216Z,18.20
2023-03-16T01:55:45.447Z,15.47
2023-03-16T01:59:20.663Z,16.87
2023-03-16T02:02:46.138Z,26.47
2023-03-16T02:06:23.527Z,15.10
2023-03-16T02:10:00.753Z,22.43
2023-03-16T02:13:25.743Z,14.73
2023-03-16T02:16:48.748Z,18.27
2023-03-16T02:20:23.137Z,17.60
2023-03-16T02:23:46.837Z,17.13
2023-03-16T02:27:39.621Z,14.53
2023-03-16T02:31:02.959Z,14.67
2023-03-16T02:34:26.992Z,17.67
2023-03-16T02:37:49.073Z,13.50
2023-03-16T02:41:27.471Z,16.83
2023-03-16T02:44:59.322Z,15.50
2023-03-16T02:48:51.048Z,16.10
2023-03-16T02:52:14.631Z,12.43
2023-03-16T02:55:37.755Z,14.90
2023-03-16T02:58:59.655Z,16.63
2023-03-16T03:02:21.910Z,17.23
2023-03-16T03:05:47.281Z,15.30
2023-03-16T03:09:11.579Z,16.10
2023-03-16T03:12:49.175Z,18.07
2023-03-16T03:16:11.132Z,16.93
2023-03-16T03:19:34.613Z,18.10
2023-03-16T03:22:56.755Z,15.40
2023-03-16T03:26:20.026Z,21.03
2023-03-16T03:29:44.539Z,17.97
2023-03-16T03:33:13.542Z,13.60
2023-03-16T03:36:37.497Z,21.70
2023-03-16T03:40:04.631Z,21.43
2023-03-16T03:43:27.592Z,18.17
2023-03-16T03:46:51.473Z,16.33
2023-03-16T03:50:14.636Z,19.33
2023-03-16T03:53:46.530Z,19.27
2023-03-16T03:57:22.047Z,16.03
2023-03-16T04:00:46.725Z,22.77
2023-03-16T04:04:15.110Z,19.83
2023-03-16T04:07:37.159Z,14.60
2023-03-16T04:11:02.017Z,15.80
2023-03-16T04:14:24.070Z,21.53
2023-03-16T04:17:54.517Z,14.47
2023-03-16T04:21:18.596Z,18.57
2023-03-16T04:24:43.188Z,15.20
2023-03-16T04:28:06.211Z,18.13
2023-03-16T04:31:30.444Z,17.27
2023-03-16T04:34:55.856Z,19.17
2023-03-16T04:38:34.015Z,18.73
2023-03-16T04:41:56.998Z,17.23
2023-03-16T04:45:24.462Z,14.37
2023-03-16T04:48:49.783Z,16.37
2023-03-16T04:52:12.903Z,16.80
2023-03-16T04:55:36.852Z,18.67
2023-03-16T04:59:00.070Z,22.13
2023-03-16T05:02:26.874Z,20.17
2023-03-16T05:05:51.567Z,16.87
2023-03-16T05:09:13.922Z,17.47
2023-03-16T05:12:35.800Z,18.23
2023-03-16T05:16:01.608Z,19.20
2023-03-16T05:19:27.761Z,25.70
2023-03-16T05:22:51.028Z,23.27
2023-03-16T05:26:19.547Z,25.33
2023-03-16T05:29:46.035Z,23.77
2023-03-16T05:33:09.117Z,23.07
2023-03-16T05:36:31.836Z,21.33
2023-03-16T05:40:01.490Z,20.20
2023-03-16T05:43:23.898Z,21.27
2023-03-16T05:46:48.629Z,22.37
2023-03-16T05:50:13.840Z,22.17
2023-03-16T05:53:37.881Z,21.60
2023-03-16T05:57:11.146Z,20.87
2023-03-16T06:00:34.706Z,21.37
2023-03-16T06:04:07.343Z,20.83
2023-03-16T06:07:32.970Z,21.80
2023-03-16T06:10:54.923Z,20.53
2023-03-16T06:14:17.135Z,26.80
2023-03-16T06:17:43.136Z,22.50
2023-03-16T06:21:05.574Z,23.47
2023-03-16T06:24:29.100Z,25.17
2023-03-16T06:27:51.196Z,21.37
2023-03-16T06:31:13.900Z,22.57
2023-03-16T06:34:39.192Z,22.73
2023-03-16T06:38:02.142Z,24.50
2023-03-16T06:41:38.234Z,21.00
2023-03-16T06:45:00.802Z,16.57
2023-03-16T06:48:22.874Z,18.37
2023-03-16T06:51:44.853Z,15.20
2023-03-16T06:55:08.109Z,26.07
2023-03-16T06:58:33.949Z,22.00
2023-03-16T07:01:57.060Z,16.50
2023-03-16T07:05:19.123Z,16.63
2023-03-16T07:08:42.554Z,17.20
2023-03-16T07:12:06.285Z,18.53
2023-03-16T07:15:32.461Z,21.77
2023-03-16T07:18:58.712Z,17.67
2023-03-16T07:22:21.939Z,17.63
2023-03-16T07:25:44.611Z,15.73
2023-03-16T07:29:17.213Z,12.83
2023-03-16T07:32:42.942Z,15.07
2023-03-16T07:36:09.250Z,14.33
2023-03-16T07:39:43.631Z,15.60
2023-03-16T07:43:14.583Z,16.93
2023-03-16T07:46:44.372Z,11.33
2023-03-16T07:50:08.781Z,16.40
2023-03-16T07:53:32.215Z,16.40
2023-03-16T07:57:19.112Z,13.00
2023-03-16T08:00:46.509Z,15.77
2023-03-16T08:04:12.209Z,10.63
2023-03-16T08:07:44.324Z,13.73
2023-03-16T08:11:11.306Z,10.97
2023-03-16T08:14:45.352Z,11.60
2023-03-16T08:18:12.555Z,14.67
2023-03-16T08:21:48.735Z,11.13
2023-03-16T08:25:19.809Z,11.50
2023-03-16T08:28:52.564Z,12.87
2023-03-16T08:32:18.540Z,8.93
2023-03-16T08:35:45.549Z,7.83
2023-03-16T08:39:08.966Z,10.63
2023-03-16T08:42:38.791Z,8.40
2023-03-16T08:46:01.696Z,13.93
2023-03-16T08:49:34.858Z,10.07
2023-03-16T08:53:02.325Z,103.35
2023-03-16T08:56:24.293Z,17.40
2023-03-16T08:59:46.171Z,10.70
2023-03-16T09:03:08.034Z,9.05
2023-03-16T09:06:36.797Z,9.63
2023-03-16T09:10:05.477Z,7.25
2023-03-16T09:13:36.457Z,8.43
2023-03-16T09:16:59.601Z,9.63
2023-03-16T09:20:30.016Z,11.23
2023-03-16T09:23:57.017Z,8.23
2023-03-16T09:27:20.723Z,8.88
2023-03-16T09:30:54.901Z,10.00
2023-03-16T09:34:16.767Z,6.45
2023-03-16T09:37:45.648Z,6.88
2023-03-16T09:41:49.857Z,7.30
2023-03-16T09:45:51.449Z,8.55
2023-03-16T09:49:23.703Z,8.20
2023-03-16T09:53:16.019Z,11.68
2023-03-16T09:56:43.198Z,11.10
2023-03-16T10:00:18.062Z,9.25
2023-03-16T10:04:35.229Z,7.43
2023-03-16T10:08:38.589Z,6.90
2023-03-16T10:12:04.288Z,11.98
2023-03-16T10:15:32.498Z,6.25
2023-03-16T10:19:05.245Z,5.88
2023-03-16T10:22:34.873Z,7.85
2023-03-16T10:25:57.243Z,5.97
2023-03-16T10:29:19.055Z,3.88
2023-03-16T10:32:41.288Z,5.28
2023-03-16T10:36:06.014Z,6.07
2023-03-16T10:39:42.694Z,6.40
2023-03-16T10:43:13.897Z,7.07
2023-03-16T10:46:48.509Z,7.05
2023-03-16T10:50:16.604Z,9.85
2023-03-16T10:53:44.141Z,5.45
2023-03-16T10:57:37.466Z,5.20
2023-03-16T11:01:00.253Z,4.10
2023-03-16T11:04:22.783Z,4.55
2023-03-16T11:07:59.809Z,6.65
2023-03-16T11:11:33.855Z,3.83
2023-03-16T11:15:20.133Z,4.88
2023-03-16T11:18:56.540Z,4.80
2023-03-16T11:22:30.131Z,5.03
2023-03-16T11:25:56.575Z,3.47
2023-03-16T11:29:34.564Z,5.43
2023-03-16T11:33:00.434Z,6.97
2023-03-16T11:36:48.875Z,5.72
2023-03-16T11:40:29.761Z,5.75
2023-03-16T11:44:28.505Z,3.70
2023-03-16T11:48:32.113Z,5.22
2023-03-16T11:52:17.303Z,2.90
2023-03-16T11:56:23.248Z,3.05
2023-03-16T12:00:31.190Z,6.03
2023-03-16T12:04:20.460Z,2.88
2023-03-16T12:08:31.281Z,4.38
2023-03-16T12:12:22.136Z,8.85
2023-03-16T12:16:01.776Z,5.15
2023-03-16T12:19:55.778Z,9.15
2023-03-16T12:23:37.577Z,8.02
2023-03-16T12:27:00.109Z,6.90
2023-03-16T12:31:14.171Z,3.53
2023-03-16T12:35:17.578Z,3.00
2023-03-16T12:38:49.777Z,6.90
2023-03-16T12:42:48.766Z,7.20
2023-03-16T12:46:41.671Z,5.53
2023-03-16T12:50:11.233Z,3.38
2023-03-16T12:53:55.084Z,5.03
2023-03-16T12:57:18.518Z,6.40
2023-03-16T13:00:42.614Z,3.28
2023-03-16T13:04:31.019Z,4.75
2023-03-16T13:08:14.547Z,6.13
2023-03-16T13:11:50.205Z,5.47
2023-03-16T13:15:31.510Z,2.40
2023-03-16T13:18:54.775Z,3.35
2023-03-16T13:22:22.668Z,4.88
2023-03-16T13:26:05.589Z,2.72
2023-03-16T13:29:30.930Z,4.32
2023-03-16T13:32:56.294Z,3.45
2023-03-16T13:36:27.050Z,3.30
2023-03-16T13:40:01.658Z,3.78
2023-03-16T13:43:33.157Z,3.38
2023-03-16T13:47:07.310Z,5.50
2023-03-16T13:50:36.257Z,4.93
2023-03-16T13:54:32.750Z,3.17
2023-03-16T13:58:01.715Z,3.63
2023-03-16T14:01:32.645Z,2.58
2023-03-16T14:04:55.712Z,4.88
2023-03-16T14:08:24.994Z,3.25
2023-03-16T14:11:48.613Z,3.50
2023-03-16T14:15:15.542Z,5.18
2023-03-16T14:18:46.111Z,3.88
2023-03-16T14:22:15.234Z,1.90
2023-03-16T14:25:37.109Z,3.75
2023-03-16T14:29:28.269Z,2.60
2023-03-16T14:33:01.330Z,4.55
2023-03-16T14:36:38.840Z,4.88
2023-03-16T14:40:20.748Z,3.25
2023-03-16T14:44:00.547Z,3.35
2023-03-16T14:47:30.820Z,1.95
2023-03-16T14:51:00.166Z,4.00
2023-03-16T14:54:22.576Z,2.75
2023-03-16T14:57:49.267Z,2.60
2023-03-16T15:01:18.104Z,2.47
2023-03-16T15:04:41.958Z,2.40
2023-03-16T15:08:10.668Z,2.35
2023-03-16T15:11:32.498Z,1.85
2023-03-16T15:15:14.823Z,3.65
2023-03-16T15:18:40.927Z,3.25
2023-03-16T15:22:28.976Z,3.55
2023-03-16T15:26:15.950Z,1.83
2023-03-16T15:29:38.104Z,2.30
2023-03-16T15:32:59.935Z,3.80
2023-03-16T15:36:24.326Z,1.98
2023-03-16T15:39:47.293Z,3.72
2023-03-16T15:43:22.704Z,2.70
2023-03-16T15:46:55.139Z,2.90
2023-03-16T15:50:24.310Z,2.80
2023-03-16T15:53:54.649Z,3.38
2023-03-16T15:57:17.729Z,1.88
2023-03-16T16:00:41.830Z,4.28
2023-03-16T16:04:04.195Z,6.03
2023-03-16T16:07:38.038Z,3.13
2023-03-16T16:11:00.024Z,2.20
2023-03-16T16:14:26.576Z,2.03
2023-03-16T16:18:13.333Z,2.70
2023-03-16T16:21:43.694Z,3.85
2023-03-16T16:25:12.107Z,3.22
2023-03-16T16:28:35.198Z,1.50
2023-03-16T16:32:26.327Z,3.15
2023-03-16T16:35:48.444Z,3.30
2023-03-16T16:39:15.589Z,3.20
2023-03-16T16:42:41.398Z,2.20
2023-03-16T16:46:13.980Z,2.85
2023-03-16T16:49:42.821Z,2.53
2023-03-16T16:53:20.544Z,1.70
2023-03-16T16:56:44.071Z,2.17
2023-03-16T17:00:22.977Z,5.13
2023-03-16T17:03:48.878Z,4.03
2023-03-16T17:07:16.580Z,2.67
2023-03-16T17:10:41.519Z,1.92
2023-03-16T17:14:07.700Z,1.88
2023-03-16T17:17:29.621Z,2.30
2023-03-16T17:20:52.852Z,2.95
2023-03-16T17:24:29.554Z,4.15
2023-03-16T17:27:55.834Z,2.30
2023-03-16T17:31:24.378Z,4.00
2023-03-16T17:34:46.351Z,1.88
2023-03-16T17:38:23.373Z,4.50
2023-03-16T17:41:54.538Z,2.00
2023-03-16T17:45:26.030Z,3.35
2023-03-16T17:48:50.868Z,2.22
2023-03-16T17:52:23.980Z,2.88
2023-03-16T17:55:47.054Z,4.82
2023-03-16T17:59:20.254Z,2.33
2023-03-16T18:02:57.110Z,2.20
2023-03-16T18:06:26.160Z,3.25
2023-03-16T18:09:48.258Z,2.90
2023-03-16T18:13:39.373Z,4.97
2023-03-16T18:17:33.647Z,3.63
2023-03-16T18:21:00.438Z,3.75
2023-03-16T18:24:28.041Z,7.25
2023-03-16T18:27:51.251Z,4.70
2023-03-16T18:31:25.624Z,3.83
2023-03-16T18:35:07.058Z,6.47
2023-03-16T18:38:33.792Z,4.00
2023-03-16T18:41:57.785Z,5.70
2023-03-16T18:45:21.630Z,5.40
2023-03-16T18:48:44.543Z,6.00
2023-03-16T18:52:23.663Z,5.63
2023-03-16T18:55:57.682Z,5.70
2023-03-16T18:59:27.856Z,3.77
2023-03-16T19:02:59.482Z,5.10
2023-03-16T19:06:37.206Z,6.33
2023-03-16T19:10:32.237Z,7.10
2023-03-16T19:13:55.076Z,4.60
2023-03-16T19:17:17.915Z,5.93
2023-03-16T19:20:43.669Z,5.10
2023-03-16T19:24:07.105Z,5.07
2023-03-16T19:27:38.256Z,4.50
2023-03-16T19:31:32.523Z,3.47
2023-03-16T19:34:54.628Z,5.73
2023-03-16T19:38:18.662Z,4.93
2023-03-16T19:41:42.327Z,4.37
2023-03-16T19:45:05.905Z,4.03
2023-03-16T19:48:44.469Z,3.50
2023-03-16T19:52:11.253Z,5.67
2023-03-16T19:55:33.317Z,4.87
2023-03-16T19:59:01.218Z,6.17
2023-03-16T20:02:36.878Z,4.23
2023-03-16T20:06:19.075Z,3.10
2023-03-16T20:09:43.634Z,5.17
2023-03-16T20:13:11.712Z,4.27
2023-03-16T20:16:37.010Z,8.07
2023-03-16T20:19:58.953Z,5.40
2023-03-16T20:23:36.217Z,8.03
2023-03-16T20:26:58.184Z,5.97
2023-03-16T20:30:20.583Z,5.70
2023-03-16T20:33:43.433Z,5.57
2023-03-16T20:37:23.758Z,4.00
2023-03-16T20:40:57.627Z,5.23
2023-03-16T20:44:23.437Z,4.70
2023-03-16T20:47:47.732Z,5.77
2023-03-16T20:51:15.337Z,4.40
2023-03-16T20:54:37.578Z,4.67
2023-03-16T20:58:24.470Z,4.60
2023-03-16T21:01:47.399Z,3.20
2023-03-16T21:05:14.053Z,5.80
2023-03-16T21:08:41.161Z,3.37
2023-03-16T21:12:07.255Z,5.00
2023-03-16T21:15:34.063Z,5.30
2023-03-16T21:18:56.840Z,5.23
2023-03-16T21:22:29.911Z,5.07
2023-03-16T21:26:00.607Z,8.07
2023-03-16T21:29:23.684Z,5.30
2023-03-16T21:33:01.827Z,6.37
2023-03-16T21:36:28.481Z,5.20
2023-03-16T21:39:54.516Z,5.37
2023-03-16T21:43:16.676Z,5.10
2023-03-16T21:46:38.881Z,4.43
2023-03-16T21:50:05.803Z,6.33
2023-03-16T21:53:33.353Z,6.23
2023-03-16T21:57:00.199Z,6.50
2023-03-16T22:00:26.877Z,7.17
2023-03-16T22:03:53.264Z,4.07
2023-03-16T22:07:15.917Z,6.77
2023-03-16T22:10:37.786Z,10.00
2023-03-16T22:14:00.183Z,9.63
2023-03-16T22:17:22.675Z,4.87
2023-03-16T22:20:44.502Z,6.63
2023-03-16T22:24:20.902Z,7.00
2023-03-16T22:27:42.708Z,6.40
2023-03-16T22:31:05.337Z,7.57
2023-03-16T22:34:50.948Z,6.37
2023-03-16T22:38:15.265Z,6.20
2023-03-16T22:41:45.355Z,6.20
2023-03-16T22:45:38.777Z,4.10
2023-03-16T22:49:00.872Z,8.07
2023-03-16T22:52:30.826Z,7.33
2023-03-16T22:55:56.191Z,6.97
2023-03-16T22:59:24.505Z,7.17
2023-03-16T23:02:46.336Z,5.23
2023-03-16T23:06:23.810Z,7.30
2023-03-16T23:09:46.631Z,6.27
2023-03-16T23:13:20.069Z,6.73
2023-03-16T23:16:42.544Z,6.10
2023-03-16T23:20:30.637Z,6.13
2023-03-16T23:24:03.000Z,7.27
2023-03-16T23:27:25.609Z,6.73
2023-03-16T23:30:47.806Z,6.83
2023-03-16T23:34:22.530Z,7.57
2023-03-16T23:37:46.783Z,5.17
2023-03-16T23:41:12.278Z,5.87
2023-03-16T23:44:34.496Z,6.37
2023-03-16T23:48:04.893Z,9.40
2023-03-16T23:51:34.554Z,6.53
2023-03-16T23:54:59.069Z,8.20
2023-03-16T23:58:21.242Z,7.07
